createdAt,value
2023-03-28T00:00:43.055Z,-1.03
2023-03-28T00:03:35.528Z,-1.02
2023-03-28T00:06:22.269Z,-1.12
2023-03-28T00:09:09.215Z,-1.15
2023-03-28T00:11:55.883Z,-1.11
2023-03-28T00:14:43.461Z,-1.12
2023-03-28T00:17:30.632Z,-1.28
2023-03-28T00:20:17.656Z,-1.31
2023-03-28T00:23:04.123Z,-1.41
2023-03-28T00:25:50.342Z,-1.43
2023-03-28T00:28:38.024Z,-1.40
2023-03-28T00:31:26.385Z,-1.35
2023-03-28T00:34:12.965Z,-1.33
2023-03-28T00:37:02.636Z,-1.25
2023-03-28T00:39:51.875Z,-1.14
2023-03-28T00:42:42.340Z,-1.19
2023-03-28T00:45:29.254Z,-1.12
2023-03-28T00:48:15.825Z,-1.22
2023-03-28T00:51:05.394Z,-1.33
2023-03-28T00:53:57.815Z,-1.24
2023-03-28T00:56:48.150Z,-1.39
2023-03-28T00:59:37.276Z,-1.43
2023-03-28T01:02:24.193Z,-1.55
2023-03-28T01:05:12.585Z,-1.56
2023-03-28T01:08:09.499Z,-1.66
2023-03-28T01:10:56.282Z,-1.64
2023-03-28T01:13:48.330Z,-1.61
2023-03-28T01:16:41.227Z,-1.73
2023-03-28T01:19:51.505Z,-1.70
2023-03-28T01:22:56.129Z,-1.72
2023-03-28T01:26:17.963Z,-1.58
2023-03-28T01:29:32.405Z,-1.46
2023-03-28T01:32:49.936Z,-1.42
2023-03-28T01:36:11.484Z,-1.49
2023-03-28T01:39:52.056Z,-1.50
2023-03-28T01:42:51.379Z,-1.48
2023-03-28T01:45:49.861Z,-1.50
2023-03-28T01:48:36.479Z,-1.50
2023-03-28T01:51:44.373Z,-1.55
2023-03-28T01:54:36.047Z,-1.46
2023-03-28T01:57:35.559Z,-1.61
2023-03-28T02:00:37.574Z,-1.64
2023-03-28T02:03:33.447Z,-1.55
2023-03-28T02:06:28.042Z,-1.30
2023-03-28T02:09:22.226Z,-1.48
2023-03-28T02:12:46.044Z,-1.52
2023-03-28T02:15:51.988Z,-1.65
2023-03-28T02:18:58.562Z,-1.74
2023-03-28T02:22:21.947Z,-1.79
2023-03-28T02:25:09.223Z,-1.77
2023-03-28T02:28:02.967Z,-1.60
2023-03-28T02:30:56.071Z,-1.63
2023-03-28T02:33:48.386Z,-1.67
2023-03-28T02:37:00.243Z,-1.27
2023-03-28T02:40:26.192Z,-1.23
2023-03-28T02:43:21.644Z,-1.45
2023-03-28T02:46:11.292Z,-1.41
2023-03-28T02:49:03.636Z,-1.39
2023-03-28T02:51:59.724Z,-1.48
2023-03-28T02:54:58.181Z,-1.57
2023-03-28T02:58:46.248Z,-1.66
2023-03-28T03:01:33.894Z,-1.83
2023-03-28T03:04:20.482Z,-1.77
2023-03-28T03:07:08.961Z,-1.66
2023-03-28T03:09:57.409Z,-1.74
2023-03-28T03:12:43.965Z,-1.83
2023-03-28T03:15:30.948Z,-2.08
2023-03-28T03:18:18.151Z,-2.10
2023-03-28T03:21:06.276Z,-2.15
2023-03-28T03:23:52.693Z,-2.31
2023-03-28T03:26:39.358Z,-2.30
2023-03-28T03:29:25.972Z,-2.38
2023-03-28T03:32:33.595Z,-2.26
2023-03-28T03:35:23.780Z,-2.31
2023-03-28T03:38:10.476Z,-2.38
2023-03-28T03:40:57.106Z,-2.42
2023-03-28T03:43:45.306Z,-2.36
2023-03-28T03:46:33.736Z,-2.50
2023-03-28T03:49:20.422Z,-2.34
2023-03-28T03:52:06.973Z,-2.33
2023-03-28T03:54:55.965Z,-2.37
2023-03-28T03:57:42.667Z,-2.46
2023-03-28T04:00:29.671Z,-2.46
2023-03-28T04:03:24.165Z,-2.54
2023-03-28T04:06:12.114Z,-2.57
2023-03-28T04:08:58.648Z,-2.63
2023-03-28T04:12:05.926Z,-2.65
2023-03-28T04:15:03.281Z,-2.65
2023-03-28T04:17:56.703Z,-2.73
2023-03-28T04:20:49.582Z,-2.48
2023-03-28T04:23:48.242Z,-2.58
2023-03-28T04:27:00.806Z,-2.49
2023-03-28T04:29:47.265Z,-2.65
2023-03-28T04:33:05.641Z,-2.52
2023-03-28T04:36:02.781Z,-2.47
2023-03-28T04:38:49.593Z,-2.46
2023-03-28T04:41:57.096Z,-2.44
2023-03-28T04:44:47.631Z,-2.58
2023-03-28T04:47:34.938Z,-2.51
2023-03-28T04:50:21.348Z,-2.42
2023-03-28T04:53:08.142Z,-2.47
2023-03-28T04:55:57.479Z,-2.59
2023-03-28T04:58:46.723Z,-2.71
2023-03-28T05:01:34.858Z,-2.71
2023-03-28T05:04:41.038Z,-2.77
2023-03-28T05:07:28.376Z,-2.84
2023-03-28T05:10:14.962Z,-2.67
2023-03-28T05:13:01.983Z,-2.64
2023-03-28T05:15:57.213Z,-2.55
2023-03-28T05:19:01.664Z,-3.00
2023-03-28T05:22:07.837Z,-2.60
2023-03-28T05:24:57.079Z,-2.30
2023-03-28T05:27:45.348Z,-2.47
2023-03-28T05:30:32.022Z,-2.44
2023-03-28T05:33:21.828Z,-2.43
2023-03-28T05:36:09.250Z,-2.52
2023-03-28T05:38:55.944Z,-2.40
2023-03-28T05:41:42.618Z,-2.33
2023-03-28T05:44:29.096Z,-2.30
2023-03-28T05:47:34.721Z,-2.15
2023-03-28T05:50:21.856Z,-2.01
2023-03-28T05:53:08.615Z,-2.01
2023-03-28T05:55:55.239Z,-1.86
2023-03-28T05:58:41.638Z,-1.86
2023-03-28T06:01:29.134Z,-1.60
2023-03-28T06:04:21.770Z,-1.40
2023-03-28T06:07:09.799Z,-1.27
2023-03-28T06:09:57.817Z,-1.18
2023-03-28T06:12:44.506Z,-1.10
2023-03-28T06:15:31.088Z,-0.99
2023-03-28T06:18:17.461Z,-0.81
2023-03-28T06:21:06.622Z,-0.79
2023-03-28T06:23:52.839Z,-0.68
2023-03-28T06:26:44.903Z,-0.80
2023-03-28T06:29:34.460Z,-0.70
2023-03-28T06:32:23.300Z,-0.44
2023-03-28T06:35:10.005Z,-0.36
2023-03-28T06:37:57.071Z,-0.17
2023-03-28T06:40:46.530Z,-0.05
2023-03-28T06:43:32.810Z,-0.23
2023-03-28T06:46:41.398Z,-0.19
2023-03-28T06:49:29.201Z,-0.32
2023-03-28T06:52:34.585Z,-0.15
2023-03-28T06:55:23.900Z,-0.20
2023-03-28T06:58:11.496Z,0.11
2023-03-28T07:01:06.815Z,0.11
2023-03-28T07:04:18.950Z,0.26
2023-03-28T07:07:07.753Z,0.18
2023-03-28T07:09:54.662Z,0.55
2023-03-28T07:12:41.492Z,0.58
2023-03-28T07:15:28.004Z,0.76
2023-03-28T07:18:14.398Z,0.89
2023-03-28T07:21:09.574Z,0.94
2023-03-28T07:23:56.153Z,0.99
2023-03-28T07:26:47.044Z,1.12
2023-03-28T07:29:33.813Z,1.21
2023-03-28T07:32:20.361Z,1.26
2023-03-28T07:35:08.421Z,1.22
2023-03-28T07:38:04.108Z,1.39
2023-03-28T07:40:54.198Z,1.49
2023-03-28T07:43:41.246Z,1.71
2023-03-28T07:46:28.218Z,1.89
2023-03-28T07:49:16.433Z,2.07
2023-03-28T07:52:04.383Z,2.31
2023-03-28T07:54:51.243Z,2.52
2023-03-28T07:57:37.886Z,2.61
2023-03-28T08:00:37.672Z,2.86
2023-03-28T08:04:03.447Z,3.06
2023-03-28T08:07:10.785Z,3.18
2023-03-28T08:09:59.045Z,3.40
2023-03-28T08:12:49.629Z,3.31
2023-03-28T08:15:36.653Z,3.35
2023-03-28T08:18:25.409Z,3.43
2023-03-28T08:21:11.819Z,3.31
2023-03-28T08:23:59.136Z,3.48
2023-03-28T08:26:52.188Z,3.58
2023-03-28T08:29:38.782Z,3.73
2023-03-28T08:32:26.847Z,3.83
2023-03-28T08:35:14.634Z,3.92
2023-03-28T08:38:02.001Z,4.03
2023-03-28T08:41:09.309Z,4.07
2023-03-28T08:44:19.600Z,4.45
2023-03-28T08:47:13.436Z,4.56
2023-03-28T08:50:01.851Z,4.60
2023-03-28T08:52:48.813Z,4.74
2023-03-28T08:55:42.881Z,4.81
2023-03-28T08:58:35.320Z,5.20
2023-03-28T09:01:23.530Z,5.23
2023-03-28T09:04:27.097Z,5.31
2023-03-28T09:07:44.621Z,5.46
2023-03-28T09:10:42.446Z,5.86
2023-03-28T09:13:57.538Z,6.00
2023-03-28T09:16:46.911Z,6.12
2023-03-28T09:19:48.215Z,6.21
2023-03-28T09:23:03.404Z,6.19
2023-03-28T09:26:29.840Z,5.95
2023-03-28T09:29:25.951Z,5.94
2023-03-28T09:32:21.081Z,5.99
2023-03-28T09:35:21.573Z,6.04
2023-03-28T09:38:38.230Z,6.18
2023-03-28T09:42:11.228Z,6.39
2023-03-28T09:45:49.109Z,6.41
2023-03-28T09:48:54.512Z,6.21
2023-03-28T09:51:45.586Z,6.28
2023-03-28T09:54:35.773Z,6.17
2023-03-28T09:57:23.522Z,6.00
2023-03-28T10:00:22.634Z,6.12
2023-03-28T10:03:32.439Z,5.83
2023-03-28T10:06:27.720Z,5.41
2023-03-28T10:09:20.188Z,5.37
2023-03-28T10:12:24.186Z,5.76
2023-03-28T10:15:45.266Z,5.89
2023-03-28T10:18:35.029Z,5.98
2023-03-28T10:21:41.738Z,6.19
2023-03-28T10:24:32.780Z,6.46
2023-03-28T10:27:33.213Z,6.39
2023-03-28T10:30:26.770Z,6.31
2023-03-28T10:33:17.390Z,6.46
2023-03-28T10:36:43.598Z,6.72
2023-03-28T10:39:33.593Z,6.96
2023-03-28T10:42:46.231Z,7.08
2023-03-28T10:46:02.373Z,6.95
2023-03-28T10:49:00.927Z,7.05
2023-03-28T10:51:47.652Z,6.94
2023-03-28T10:55:06.861Z,6.91
2023-03-28T10:58:36.090Z,6.69
2023-03-28T11:02:00.062Z,6.59
2023-03-28T11:05:12.317Z,6.48
2023-03-28T11:08:21.219Z,6.66
2023-03-28T11:11:44.866Z,6.96
2023-03-28T11:14:57.970Z,7.33
2023-03-28T11:18:03.157Z,7.52
2023-03-28T11:21:07.856Z,7.42
2023-03-28T11:24:06.712Z,7.39
2023-03-28T11:27:15.672Z,7.30
2023-03-28T11:30:23.916Z,7.63
2023-03-28T11:33:48.662Z,7.46
2023-03-28T11:36:48.792Z,7.78
2023-03-28T11:39:48.029Z,8.32
2023-03-28T11:42:48.766Z,8.76
2023-03-28T11:45:53.739Z,8.59
2023-03-28T11:49:16.918Z,8.57
2023-03-28T11:52:16.809Z,8.48
2023-03-28T11:55:18.837Z,8.79
2023-03-28T11:58:20.065Z,8.95
2023-03-28T12:01:12.166Z,9.21
2023-03-28T12:03:58.961Z,9.11
2023-03-28T12:07:03.740Z,9.22
2023-03-28T12:10:17.441Z,9.46
2023-03-28T12:13:18.864Z,9.57
2023-03-28T12:16:24.049Z,9.64
2023-03-28T12:19:17.319Z,9.79
2023-03-28T12:22:26.477Z,9.95
2023-03-28T12:25:21.963Z,10.12
2023-03-28T12:28:35.736Z,10.40
2023-03-28T12:31:42.425Z,10.74
2023-03-28T12:34:44.445Z,10.39
2023-03-28T12:38:14.297Z,10.63
2023-03-28T12:41:04.024Z,10.96
2023-03-28T12:43:53.949Z,10.99
2023-03-28T12:46:46.450Z,11.11
2023-03-28T12:49:44.959Z,10.48
2023-03-28T12:52:36.704Z,10.57
2023-03-28T12:55:25.640Z,10.82
2023-03-28T12:58:20.908Z,11.00
2023-03-28T13:01:25.334Z,11.06
2023-03-28T13:04:46.362Z,10.86
2023-03-28T13:08:04.729Z,10.34
2023-03-28T13:11:19.082Z,10.65
2023-03-28T13:14:11.239Z,10.77
2023-03-28T13:17:00.388Z,10.53
2023-03-28T13:19:51.746Z,10.68
2023-03-28T13:22:49.141Z,10.51
2023-03-28T13:25:36.681Z,10.10
2023-03-28T13:28:32.592Z,10.05
2023-03-28T13:31:24.729Z,9.83
2023-03-28T13:34:23.341Z,10.18
2023-03-28T13:37:24.824Z,10.09
2023-03-28T13:40:50.669Z,10.24
2023-03-28T13:43:37.701Z,10.01
2023-03-28T13:46:30.287Z,10.37
2023-03-28T13:49:32.074Z,10.63
2023-03-28T13:52:22.375Z,11.03
2023-03-28T13:55:23.082Z,10.97
2023-03-28T13:58:13.233Z,10.99
2023-03-28T14:01:16.502Z,10.66
2023-03-28T14:04:16.283Z,10.60
2023-03-28T14:07:02.652Z,10.38
2023-03-28T14:09:50.876Z,10.30
2023-03-28T14:12:38.146Z,10.44
2023-03-28T14:15:29.710Z,10.75
2023-03-28T14:18:22.745Z,10.50
2023-03-28T14:21:10.154Z,10.79
2023-03-28T14:24:07.783Z,10.91
2023-03-28T14:27:12.611Z,11.03
2023-03-28T14:30:00.407Z,11.37
2023-03-28T14:33:14.815Z,11.75
2023-03-28T14:36:04.225Z,12.03
2023-03-28T14:38:51.057Z,12.25
2023-03-28T14:41:38.245Z,12.44
2023-03-28T14:44:25.050Z,12.03
2023-03-28T14:47:17.545Z,12.05
2023-03-28T14:50:05.267Z,12.16
2023-03-28T14:52:52.165Z,12.19
2023-03-28T14:55:39.248Z,12.17
2023-03-28T14:58:26.720Z,11.95
2023-03-28T15:01:24.745Z,12.02
2023-03-28T15:04:13.465Z,11.91
2023-03-28T15:07:00.050Z,11.71
2023-03-28T15:10:01.378Z,11.60
2023-03-28T15:13:08.863Z,11.18
2023-03-28T15:15:57.678Z,10.97
2023-03-28T15:18:49.164Z,10.83
2023-03-28T15:21:38.757Z,10.51
2023-03-28T15:24:27.787Z,10.42
2023-03-28T15:27:33.250Z,10.42
2023-03-28T15:30:20.790Z,10.50
2023-03-28T15:33:07.350Z,10.49
2023-03-28T15:36:12.093Z,10.53
2023-03-28T15:39:11.097Z,10.44
2023-03-28T15:42:16.575Z,10.22
2023-03-28T15:45:22.325Z,10.21
2023-03-28T15:48:19.735Z,10.02
2023-03-28T15:51:12.996Z,9.96
2023-03-28T15:54:00.374Z,9.95
2023-03-28T15:56:48.672Z,9.80
2023-03-28T16:00:01.424Z,9.75
2023-03-28T16:02:48.571Z,9.67
2023-03-28T16:05:37.556Z,9.60
2023-03-28T16:08:32.619Z,9.59
2023-03-28T16:11:26.700Z,9.71
2023-03-28T16:14:35.222Z,9.58
2023-03-28T16:17:48.857Z,9.65
2023-03-28T16:20:43.928Z,9.65
2023-03-28T16:23:30.321Z,9.52
2023-03-28T16:26:17.077Z,9.39
2023-03-28T16:29:05.134Z,9.22
2023-03-28T16:31:51.527Z,9.20
2023-03-28T16:34:38.738Z,9.05
2023-03-28T16:37:24.912Z,8.93
2023-03-28T16:40:12.074Z,8.95
2023-03-28T16:42:58.843Z,8.80
2023-03-28T16:45:47.082Z,8.89
2023-03-28T16:48:36.544Z,8.73
2023-03-28T16:51:23.118Z,8.56
2023-03-28T16:54:10.166Z,8.52
2023-03-28T16:56:57.113Z,8.52
2023-03-28T16:59:43.705Z,8.35
2023-03-28T17:02:30.843Z,8.28
2023-03-28T17:05:17.795Z,8.12
2023-03-28T17:08:04.590Z,7.89
2023-03-28T17:10:52.128Z,7.98
2023-03-28T17:13:40.288Z,7.78
2023-03-28T17:16:27.343Z,7.63
2023-03-28T17:19:14.102Z,7.41
2023-03-28T17:22:01.263Z,7.43
2023-03-28T17:24:47.549Z,7.14
2023-03-28T17:27:33.784Z,7.16
2023-03-28T17:30:20.580Z,7.08
2023-03-28T17:33:07.614Z,6.99
2023-03-28T17:35:54.227Z,6.89
2023-03-28T17:38:41.023Z,6.77
2023-03-28T17:41:28.069Z,6.66
2023-03-28T17:44:14.661Z,6.54
2023-03-28T17:47:01.367Z,6.57
2023-03-28T17:49:47.973Z,6.62
2023-03-28T17:52:34.939Z,6.60
2023-03-28T17:55:21.578Z,6.55
2023-03-28T17:58:08.223Z,6.69
2023-03-28T18:00:54.766Z,6.75
2023-03-28T18:03:41.593Z,6.79
2023-03-28T18:06:41.090Z,6.76
2023-03-28T18:09:27.656Z,6.72
2023-03-28T18:12:14.436Z,6.79
2023-03-28T18:15:01.480Z,6.75
2023-03-28T18:17:48.091Z,6.56
2023-03-28T18:20:35.389Z,6.57
2023-03-28T18:23:22.094Z,6.49
2023-03-28T18:26:09.081Z,6.52
2023-03-28T18:28:55.830Z,6.47
2023-03-28T18:31:42.628Z,6.37
2023-03-28T18:34:29.079Z,6.29
2023-03-28T18:37:16.602Z,6.25
2023-03-28T18:40:07.141Z,5.99
2023-03-28T18:42:53.797Z,5.95
2023-03-28T18:45:40.288Z,5.73
2023-03-28T18:48:28.390Z,5.77
2023-03-28T18:51:14.544Z,5.79
2023-03-28T18:54:01.538Z,5.80
2023-03-28T18:56:48.402Z,5.85
2023-03-28T18:59:34.745Z,5.91
2023-03-28T19:02:22.273Z,5.86
2023-03-28T19:05:09.430Z,5.96
2023-03-28T19:07:56.927Z,5.93
2023-03-28T19:10:46.536Z,6.02
2023-03-28T19:13:33.355Z,6.03
2023-03-28T19:16:20.287Z,6.16
2023-03-28T19:19:06.728Z,6.17
2023-03-28T19:21:53.405Z,6.22
2023-03-28T19:24:39.914Z,6.16
2023-03-28T19:27:26.087Z,6.19
2023-03-28T19:30:12.755Z,6.12
2023-03-28T19:32:59.112Z,6.13
2023-03-28T19:35:45.632Z,6.09
2023-03-28T19:38:34.883Z,6.11
2023-03-28T19:41:23.147Z,6.10
2023-03-28T19:44:09.860Z,6.07
2023-03-28T19:46:56.054Z,6.03
2023-03-28T19:49:42.869Z,5.99
2023-03-28T19:52:29.368Z,5.86
2023-03-28T19:55:15.554Z,5.94
2023-03-28T19:58:04.973Z,5.90
2023-03-28T20:00:51.398Z,5.79
2023-03-28T20:03:37.721Z,5.97
2023-03-28T20:06:24.996Z,5.98
2023-03-28T20:09:11.505Z,6.02
2023-03-28T20:11:58.121Z,6.01
2023-03-28T20:14:45.730Z,5.96
2023-03-28T20:17:32.722Z,6.02
2023-03-28T20:20:19.455Z,6.17
2023-03-28T20:23:06.786Z,6.16
2023-03-28T20:25:53.818Z,6.11
2023-03-28T20:28:41.577Z,6.10
2023-03-28T20:31:29.070Z,6.33
2023-03-28T20:34:15.552Z,6.31
2023-03-28T20:37:02.066Z,6.46
2023-03-28T20:39:50.535Z,6.71
2023-03-28T20:42:40.674Z,6.50
2023-03-28T20:45:28.430Z,6.45
2023-03-28T20:48:16.641Z,6.69
2023-03-28T20:51:14.371Z,6.88
2023-03-28T20:54:01.592Z,6.80
2023-03-28T20:56:49.342Z,6.73
2023-03-28T20:59:35.392Z,6.75
2023-03-28T21:02:23.139Z,6.74
2023-03-28T21:05:09.929Z,6.56
2023-03-28T21:07:58.184Z,6.40
2023-03-28T21:10:51.929Z,6.62
2023-03-28T21:13:38.237Z,6.47
2023-03-28T21:16:25.559Z,6.44
2023-03-28T21:19:12.018Z,6.27
2023-03-28T21:21:58.236Z,6.08
2023-03-28T21:24:44.520Z,6.12
2023-03-28T21:27:32.050Z,5.97
2023-03-28T21:30:19.428Z,5.99
2023-03-28T21:33:06.917Z,6.04
2023-03-28T21:35:54.375Z,5.95
2023-03-28T21:38:40.889Z,5.95
2023-03-28T21:41:27.404Z,6.25
2023-03-28T21:44:13.797Z,6.04
2023-03-28T21:47:00.702Z,6.02
2023-03-28T21:49:49.326Z,5.97
2023-03-28T21:52:36.308Z,5.71
2023-03-28T21:55:22.862Z,5.88
2023-03-28T21:58:09.090Z,5.78
2023-03-28T22:00:55.963Z,6.03
2023-03-28T22:03:42.829Z,6.22
2023-03-28T22:06:29.327Z,6.07
2023-03-28T22:09:15.575Z,6.06
2023-03-28T22:12:05.536Z,5.96
2023-03-28T22:14:52.153Z,5.68
2023-03-28T22:17:40.633Z,5.64
2023-03-28T22:20:28.405Z,5.73
2023-03-28T22:23:15.146Z,5.63
2023-03-28T22:26:03.445Z,5.96
2023-03-28T22:28:49.760Z,5.80
2023-03-28T22:31:36.099Z,5.92
2023-03-28T22:34:22.585Z,5.78
2023-03-28T22:37:09.112Z,5.80
2023-03-28T22:39:55.958Z,5.92
2023-03-28T22:42:42.322Z,6.07
2023-03-28T22:45:28.945Z,6.44
2023-03-28T22:48:15.573Z,6.70
2023-03-28T22:51:02.523Z,6.80
2023-03-28T22:53:49.357Z,6.83
2023-03-28T22:56:35.645Z,6.91
2023-03-28T22:59:22.392Z,6.72
2023-03-28T23:02:08.789Z,6.90
2023-03-28T23:04:55.953Z,6.85
2023-03-28T23:07:42.939Z,6.77
2023-03-28T23:10:32.877Z,6.78
2023-03-28T23:13:19.496Z,6.73
2023-03-28T23:16:07.212Z,6.65
2023-03-28T23:18:53.651Z,6.52
2023-03-28T23:21:41.513Z,6.31
2023-03-28T23:24:28.216Z,6.31
2023-03-28T23:27:14.615Z,6.34
2023-03-28T23:30:00.908Z,6.23
2023-03-28T23:32:47.340Z,6.10
2023-03-28T23:35:33.664Z,5.91
2023-03-28T23:38:19.942Z,5.86
2023-03-28T23:41:07.682Z,5.68
2023-03-28T23:43:54.053Z,5.63
2023-03-28T23:46:40.635Z,5.66
2023-03-28T23:49:26.952Z,5.56
2023-03-28T23:52:13.293Z,5.72
2023-03-28T23:54:59.696Z,5.63
2023-03-28T23:57:46.680Z,5.52
